Time;durP1;ratioP1;P1;durP2;ratioP2;P2;SDS_P1;SDS_P2;PMS_P1;PMS_P2;Temp;Humidity;BMP_temperature;BMP_pressure;BME280_temperature;BME280_humidity;BME280_pressure;Samples;Min_cycle;Max_cycle;Signal;HPM_P1;HPM_P2
2021/07/24 00:00:04;;;;;;;100.13;93.97;;;14.90;87.70;;;;;;6074193;23;20453;-78
2021/07/24 03:21:32;;;;;;;828.13;791.07;;;13.10;99.90;;;;;;6119708;23;20453;-78
2021/07/24 03:23:58;;;;;;;785.60;752.27;;;13.10;99.90;;;;;;6068684;23;20406;-78
2021/07/24 03:26:25;;;;;;;776.83;744.63;;;13.10;99.90;;;;;;6077966;23;20425;-77
2021/07/24 03:28:52;;;;;;;768.47;736.77;;;13.10;99.90;;;;;;6066918;23;21264;-77
2021/07/24 03:31:19;;;;;;;794.83;761.73;;;13.10;99.90;;;;;;6077921;23;20417;-76
2021/07/24 03:33:47;;;;;;;795.83;762.97;;;13.10;99.90;;;;;;6068571;23;20405;-79
2021/07/24 03:36:13;;;;;;;798.27;765.63;;;13.10;99.90;;;;;;6068167;23;20413;-79
2021/07/24 03:38:42;;;;;;;799.70;766.20;;;13.20;99.90;;;;;;6068585;23;20452;-78
2021/07/24 03:41:08;;;;;;;816.20;781.53;;;13.30;99.90;;;;;;6068560;23;20463;-78
2021/07/24 03:43:35;;;;;;;798.13;764.60;;;13.40;99.90;;;;;;6067458;23;20411;-80
2021/07/24 03:46:02;;;;;;;845.93;804.87;;;13.50;99.90;;;;;;6068568;23;20405;-77
2021/07/24 03:48:28;;;;;;;902.00;861.00;;;13.60;99.90;;;;;;6068419;23;20442;-77
2021/07/24 03:50:55;;;;;;;938.57;895.63;;;13.70;99.90;;;;;;6068278;23;20407;-76
2021/07/24 03:58:24;;;;;;;956.77;912.77;;;14.00;99.90;;;;;;6152613;23;20806;-78
2021/07/24 04:00:51;;;;;;;926.60;884.50;;;14.10;99.90;;;;;;6154478;23;20164;-81
2021/07/24 04:03:18;;;;;;;933.17;891.83;;;14.20;99.90;;;;;;6155339;23;20409;-78
2021/07/24 04:05:46;;;;;;;762.47;734.90;;;14.20;99.90;;;;;;6155334;23;20900;-79
2021/07/24 04:08:13;;;;;;;646.47;623.93;;;14.30;99.90;;;;;;6155776;23;20428;-78
2021/07/24 04:10:41;;;;;;;721.40;696.20;;;14.40;99.90;;;;;;6155884;23;20409;-78
2021/07/24 04:13:08;;;;;;;720.90;696.10;;;14.50;99.90;;;;;;6155878;23;20406;-80
2021/07/24 04:15:37;;;;;;;906.47;872.53;;;14.50;99.90;;;;;;6154002;23;20896;-80
2021/07/24 04:18:04;;;;;;;947.47;911.27;;;14.60;99.90;;;;;;6164901;23;20471;-78
2021/07/24 04:20:31;;;;;;;881.07;848.87;;;14.70;99.90;;;;;;6155770;23;20518;-78
2021/07/24 04:22:58;;;;;;;861.47;831.70;;;14.70;99.90;;;;;;6165330;23;21004;-79
2021/07/24 04:25:25;;;;;;;705.53;682.83;;;14.70;99.90;;;;;;6155832;23;20405;-78
2021/07/24 04:27:52;;;;;;;786.73;760.77;;;14.80;99.90;;;;;;6155708;23;20428;-79
2021/07/24 04:30:19;;;;;;;708.97;685.63;;;14.80;99.90;;;;;;6154205;23;20433;-80
2021/07/24 05:26:14;;;;;;;48.50;34.87;;;17.20;80.80;;;;;;6049874;23;20479;-81
2021/07/24 05:28:41;;;;;;;47.50;33.13;;;17.30;77.30;;;;;;6097067;23;20427;-76
2021/07/24 05:31:15;;;;;;;45.37;29.00;;;17.40;78.00;;;;;;6098464;23;20407;-78
2021/07/24 05:33:42;;;;;;;47.00;28.63;;;17.50;77.10;;;;;;6098658;23;20479;-77
2021/07/24 05:36:09;;;;;;;43.10;25.47;;;17.70;74.70;;;;;;6098488;23;20403;-80
2021/07/24 05:38:36;;;;;;;44.27;27.50;;;17.80;72.80;;;;;;6098567;23;20731;-78
2021/07/24 05:41:03;;;;;;;46.50;28.90;;;17.90;72.20;;;;;;6098582;23;20733;-81
2021/07/24 05:43:31;;;;;;;44.10;22.70;;;17.90;72.90;;;;;;6098250;23;20433;-77
2021/07/24 05:46:00;;;;;;;45.37;28.70;;;18.00;72.80;;;;;;6097062;23;20404;-78
2021/07/24 05:48:27;;;;;;;48.83;30.20;;;18.20;74.20;;;;;;6098263;23;20468;-78
2021/07/24 05:50:54;;;;;;;49.73;32.17;;;18.40;74.10;;;;;;6097980;23;20935;-81
2021/07/24 05:53:21;;;;;;;47.03;28.30;;;18.60;72.80;;;;;;6098085;23;20465;-79
2021/07/24 05:55:48;;;;;;;50.50;30.47;;;18.80;69.00;;;;;;6098079;23;20407;-79
2021/07/24 05:58:14;;;;;;;52.30;23.67;;;19.00;69.20;;;;;;6098317;23;20404;-81
2021/07/24 06:00:42;;;;;;;48.70;18.73;;;19.30;66.80;;;;;;6096820;23;20735;-79
2021/07/24 06:03:09;;;;;;;51.10;12.97;;;19.70;63.10;;;;;;6098117;23;20440;-80
2021/07/24 06:05:36;;;;;;;51.33;12.10;;;20.00;58.50;;;;;;6098163;23;20408;-79
2021/07/24 06:08:05;;;;;;;50.00;10.43;;;20.20;55.80;;;;;;6098060;23;20410;-78
2021/07/24 06:10:32;;;;;;;47.90;10.77;;;20.60;52.20;;;;;;6098025;23;20440;-77
2021/07/24 06:12:59;;;;;;;53.93;11.67;;;20.70;50.10;;;;;;6107945;23;20420;-78
2021/07/24 06:15:26;;;;;;;48.97;10.97;;;20.90;46.70;;;;;;6095477;23;20435;-76
2021/07/24 06:17:54;;;;;;;50.03;11.73;;;21.20;45.00;;;;;;6097509;23;20410;-76
2021/07/24 06:20:21;;;;;;;53.20;12.47;;;21.30;41.10;;;;;;6098209;23;20446;-77
2021/07/24 06:22:48;;;;;;;53.53;12.43;;;21.20;41.50;;;;;;6107309;23;20487;-78
2021/07/24 06:25:15;;;;;;;52.10;10.80;;;21.10;40.00;;;;;;6097929;23;20490;-77
2021/07/24 06:27:42;;;;;;;53.63;12.30;;;21.20;40.70;;;;;;6121103;23;20474;-78
2021/07/24 06:30:10;;;;;;;51.50;12.70;;;21.00;40.50;;;;;;6125527;23;20521;-77
2021/07/24 06:32:37;;;;;;;49.80;12.53;;;21.00;42.10;;;;;;6126780;23;20481;-77
2021/07/24 06:35:06;;;;;;;49.60;11.63;;;20.90;40.90;;;;;;6127193;23;20494;-77
2021/07/24 06:37:33;;;;;;;53.77;12.37;;;21.00;39.60;;;;;;6126998;23;20513;-79
2021/07/24 06:40:00;;;;;;;49.67;12.87;;;21.00;39.10;;;;;;6136126;23;20949;-77
2021/07/24 06:42:26;;;;;;;51.10;12.73;;;21.00;39.40;;;;;;6127203;23;20489;-78
2021/07/24 06:44:54;;;;;;;51.63;12.27;;;21.20;40.20;;;;;;6125289;23;20954;-78
2021/07/24 06:47:21;;;;;;;47.90;12.37;;;21.20;36.40;;;;;;6136521;23;20415;-77
2021/07/24 06:49:47;;;;;;;50.17;12.13;;;21.30;36.50;;;;;;6126534;23;20525;-76
2021/07/24 06:52:26;;;;;;;;;;;;;;;;;;;;;
2021/07/24 06:54:52;;;;;;;48.30;10.47;;;21.70;36.60;;;;;;6126246;23;20974;-77
2021/07/24 06:57:19;;;;;;;51.97;10.77;;;21.70;35.40;;;;;;6126403;23;20917;-77
2021/07/24 06:59:46;;;;;;;49.30;11.37;;;21.80;34.30;;;;;;6125593;23;20441;-79
2021/07/24 07:02:13;;;;;;;51.20;12.00;;;21.90;33.00;;;;;;6136561;23;20411;-79
2021/07/24 07:04:40;;;;;;;49.00;11.60;;;21.80;32.40;;;;;;6126794;23;20415;-80
2021/07/24 07:07:07;;;;;;;50.67;11.63;;;21.80;31.80;;;;;;6126663;23;20425;-81
2021/07/24 07:09:35;;;;;;;54.67;13.23;;;21.90;32.40;;;;;;6135956;23;20427;-77
2021/07/24 07:12:03;;;;;;;50.97;11.43;;;21.90;29.70;;;;;;6126607;23;20489;-80
2021/07/24 07:14:30;;;;;;;48.63;11.73;;;21.80;31.40;;;;;;6125254;23;20709;-80
2021/07/24 07:16:57;;;;;;;50.23;10.20;;;22.00;33.20;;;;;;6126792;23;20718;-80
2021/07/24 07:19:24;;;;;;;50.43;11.03;;;22.10;34.20;;;;;;6122038;23;20736;-82
2021/07/24 07:21:51;;;;;;;49.20;10.10;;;22.20;31.20;;;;;;6124430;23;20879;-78
2021/07/24 07:24:18;;;;;;;51.77;10.70;;;22.20;29.30;;;;;;6124980;23;20453;-78
2021/07/24 07:26:46;;;;;;;48.10;10.20;;;22.30;29.40;;;;;;6124706;23;20450;-79
2021/07/24 07:29:13;;;;;;;50.10;10.97;;;22.40;28.80;;;;;;6123369;23;20435;-79
2021/07/24 07:31:40;;;;;;;54.17;11.70;;;22.70;29.60;;;;;;6125605;23;20410;-79
2021/07/24 07:34:06;;;;;;;50.57;10.57;;;22.80;29.00;;;;;;6126551;23;20493;-81
2021/07/24 07:36:33;;;;;;;52.20;9.73;;;22.90;27.30;;;;;;6126580;23;20439;-82
2021/07/24 07:39:01;;;;;;;50.97;10.07;;;23.20;26.30;;;;;;6135377;23;20403;-84
2021/07/24 07:41:27;;;;;;;51.03;9.43;;;23.50;26.10;;;;;;6126640;23;20426;-81
2021/07/24 07:43:57;;;;;;;55.00;10.10;;;23.60;25.30;;;;;;6124910;23;21404;-80
2021/07/24 07:46:24;;;;;;;55.83;9.33;;;23.70;23.80;;;;;;6126203;23;20431;-83
2021/07/24 07:48:50;;;;;;;56.80;10.60;;;23.70;23.80;;;;;;6126448;23;20775;-82
2021/07/24 07:51:17;;;;;;;58.50;11.23;;;23.80;22.40;;;;;;6121552;23;20407;-85
2021/07/24 07:53:44;;;;;;;57.87;9.80;;;23.80;22.80;;;;;;6126591;23;20734;-82
2021/07/24 07:56:11;;;;;;;57.70;10.70;;;24.00;22.60;;;;;;6135951;23;20413;-81
2021/07/24 07:58:38;;;;;;;56.10;10.57;;;23.80;20.60;;;;;;6135610;23;20498;-79
2021/07/24 08:01:12;;;;;;;66.50;11.23;;;24.10;21.30;;;;;;6125819;23;20734;-86
2021/07/24 08:03:39;;;;;;;57.60;10.70;;;24.00;20.40;;;;;;6126649;23;20403;-82
2021/07/24 08:06:06;;;;;;;63.13;12.00;;;24.20;19.90;;;;;;6126519;23;20400;-83
2021/07/24 08:08:33;;;;;;;58.33;10.50;;;24.50;19.70;;;;;;6126305;23;20403;-86
2021/07/24 08:11:00;;;;;;;64.85;14.85;;;24.30;19.70;;;;;;6125356;23;20513;-84
2021/07/24 08:13:27;;;;;;;60.93;13.20;;;24.70;19.20;;;;;;6126607;23;20198;-82
2021/07/24 08:15:54;;;;;;;61.10;12.97;;;24.80;18.90;;;;;;6124825;23;20435;-81
2021/07/24 08:18:22;;;;;;;59.87;12.27;;;24.30;17.80;;;;;;6126210;23;20879;-82
2021/07/24 08:20:49;;;;;;;60.50;11.70;;;24.50;18.60;;;;;;6126480;23;20505;-80
2021/07/24 08:23:16;;;;;;;59.00;10.67;;;24.10;18.90;;;;;;6126192;23;20382;-80
2021/07/24 08:25:43;;;;;;;62.97;12.50;;;24.20;18.90;;;;;;6126387;23;20796;-81
2021/07/24 08:28:11;;;;;;;61.37;12.00;;;24.30;18.60;;;;;;6135785;23;20377;-80
2021/07/24 08:30:38;;;;;;;58.53;10.87;;;24.60;17.40;;;;;;6124738;23;20435;-82
2021/07/24 08:33:05;;;;;;;58.70;10.60;;;24.70;15.60;;;;;;6125961;23;20407;-81
2021/07/24 08:35:33;;;;;;;64.90;13.33;;;24.90;14.60;;;;;;6126217;23;20445;-81
2021/07/24 08:38:00;;;;;;;56.97;10.90;;;24.90;14.80;;;;;;6126423;23;20413;-81
2021/07/24 08:40:27;;;;;;;58.63;12.57;;;24.70;15.10;;;;;;6125953;23;20403;-82
2021/07/24 08:42:53;;;;;;;63.90;11.90;;;24.70;15.50;;;;;;6125938;23;20891;-82
2021/07/24 08:45:20;;;;;;;59.03;12.50;;;24.70;15.60;;;;;;6134289;23;20415;-83
2021/07/24 08:47:50;;;;;;;63.00;12.40;;;24.40;15.40;;;;;;6126070;23;20902;-81
2021/07/24 08:50:17;;;;;;;61.97;11.70;;;24.30;15.30;;;;;;6136115;23;20513;-82
2021/07/24 08:52:51;;;;;;;58.60;12.17;;;24.20;15.60;;;;;;6128021;23;20407;-79
2021/07/24 08:55:21;;;;;;;63.60;13.63;;;24.00;15.70;;;;;;6128241;23;20402;-81
2021/07/24 08:57:49;;;;;;;58.13;14.20;;;23.80;16.50;;;;;;6128023;23;20405;-83
2021/07/24 09:00:19;;;;;;;63.20;11.90;;;23.80;17.80;;;;;;6126745;23;20406;-82
2021/07/24 09:02:47;;;;;;;57.20;12.17;;;23.60;18.50;;;;;;6127864;23;20374;-82
2021/07/24 09:05:16;;;;;;;57.57;12.60;;;23.50;19.20;;;;;;6128228;23;20406;-83
2021/07/24 09:07:47;;;;;;;55.87;12.63;;;23.40;18.30;;;;;;6128179;23;20763;-84
2021/07/24 09:10:15;;;;;;;55.40;12.67;;;23.30;19.90;;;;;;6127997;23;20473;-80
2021/07/24 09:12:43;;;;;;;62.30;16.87;;;23.20;21.20;;;;;;6128224;23;20410;-82
2021/07/24 09:15:13;;;;;;;56.50;12.67;;;22.90;21.30;;;;;;6126522;23;20973;-80
2021/07/24 09:17:39;;;;;;;59.73;12.40;;;22.90;22.20;;;;;;6127714;23;20795;-83
2021/07/24 09:20:07;;;;;;;64.00;12.40;;;22.80;21.70;;;;;;6136717;23;20417;-82
2021/07/24 09:22:35;;;;;;;58.27;13.00;;;22.80;21.70;;;;;;6137531;23;20417;-82
2021/07/24 09:25:12;;;;;;;57.10;12.93;;;22.90;21.80;;;;;;6127680;23;20410;-79
2021/07/24 09:27:41;;;;;;;62.55;14.07;;;22.90;22.00;;;;;;6126238;23;20425;-80
2021/07/24 09:30:11;;;;;;;59.80;12.93;;;23.00;22.20;;;;;;6126060;23;20632;-78
2021/07/24 09:32:38;;;;;;;55.00;11.23;;;23.00;21.90;;;;;;6137718;23;20416;-79
2021/07/24 09:35:06;;;;;;;53.40;11.80;;;23.20;21.40;;;;;;6127675;23;20517;-78
2021/07/24 09:37:33;;;;;;;54.80;11.23;;;23.30;20.80;;;;;;6127587;23;20413;-83
2021/07/24 09:40:23;;;;;;;56.97;11.30;;;23.40;21.20;;;;;;6137752;23;20399;-82
2021/07/24 09:42:50;;;;;;;56.50;12.50;;;23.60;20.10;;;;;;6127925;23;20403;-80
2021/07/24 09:45:16;;;;;;;55.07;11.87;;;23.70;19.90;;;;;;6126403;23;20399;-82
2021/07/24 09:47:43;;;;;;;58.17;12.53;;;23.90;18.70;;;;;;6127613;23;20729;-82
2021/07/24 09:50:12;;;;;;;56.90;13.03;;;23.90;19.10;;;;;;6137115;23;20466;-83
2021/07/24 09:52:50;;;;;;;61.40;14.47;;;24.00;18.90;;;;;;6127792;23;20783;-82
2021/07/24 09:55:22;;;;;;;61.73;14.07;;;24.00;17.90;;;;;;6127382;23;20991;-79
2021/07/24 09:57:50;;;;;;;67.57;17.30;;;24.00;19.70;;;;;;6126107;23;20929;-80
2021/07/24 10:00:23;;;;;;;59.83;13.00;;;24.00;20.10;;;;;;6126032;23;20290;-81
2021/07/24 10:02:57;;;;;;;62.37;14.83;;;23.80;22.10;;;;;;6127144;23;20421;-81
2021/07/24 10:05:30;;;;;;;60.13;14.53;;;23.70;20.50;;;;;;6137463;23;20469;-81
2021/07/24 10:07:57;;;;;;;58.60;14.40;;;23.50;21.40;;;;;;6127239;23;20486;-82
2021/07/24 10:10:25;;;;;;;61.30;13.97;;;23.50;21.60;;;;;;6127529;23;20950;-81
2021/07/24 10:12:52;;;;;;;60.10;17.63;;;23.30;22.10;;;;;;6127486;23;20430;-79
2021/07/24 10:15:19;;;;;;;59.20;14.77;;;23.20;21.20;;;;;;6125934;23;20490;-80
2021/07/24 10:17:47;;;;;;;57.67;13.90;;;23.10;22.00;;;;;;6137293;23;20407;-80
2021/07/24 10:20:17;;;;;;;57.37;12.97;;;23.00;22.20;;;;;;6127257;23;20494;-80
2021/07/24 10:22:44;;;;;;;58.13;16.23;;;23.00;21.90;;;;;;6127423;23;20410;-82
2021/07/24 10:25:11;;;;;;;62.33;14.60;;;22.90;21.80;;;;;;6127145;23;20407;-82
2021/07/24 10:27:41;;;;;;;57.77;13.50;;;23.00;23.60;;;;;;6047680;23;20439;-78
2021/07/24 10:30:09;;;;;;;63.23;14.67;;;23.00;23.00;;;;;;6096599;23;20432;-78
2021/07/24 10:32:38;;;;;;;61.83;14.13;;;23.10;22.00;;;;;;6097793;23;20411;-79
2021/07/24 10:35:06;;;;;;;57.67;13.97;;;23.00;22.70;;;;;;6107469;23;20458;-79
2021/07/24 10:37:35;;;;;;;58.07;14.70;;;23.00;22.90;;;;;;6097969;23;20404;-81
2021/07/24 10:40:33;;;;;;;61.57;15.90;;;23.00;23.70;;;;;;6098242;23;20407;-79
2021/07/24 10:43:03;;;;;;;62.22;14.93;;;23.00;24.30;;;;;;6097526;23;20888;-80
2021/07/24 10:45:51;;;;;;;58.53;15.27;;;22.90;22.90;;;;;;6096614;23;20488;-79
2021/07/24 10:48:20;;;;;;;62.17;15.40;;;22.80;23.90;;;;;;6097599;23;20404;-81
2021/07/24 10:51:15;;;;;;;59.13;16.30;;;23.00;24.10;;;;;;6107135;23;20432;-80
2021/07/24 10:54:05;;;;;;;60.43;15.13;;;22.80;22.50;;;;;;6097413;23;20479;-81
2021/07/24 10:56:38;;;;;;;58.80;14.63;;;22.90;24.40;;;;;;6097830;23;20503;-83
2021/07/24 10:59:23;;;;;;;58.73;14.70;;;23.00;25.20;;;;;;6106119;23;20418;-83
2021/07/24 11:01:52;;;;;;;59.13;15.77;;;23.10;24.20;;;;;;6097940;23;20404;-83
2021/07/24 11:04:41;;;;;;;60.60;14.23;;;23.20;24.30;;;;;;6097454;23;20892;-79
2021/07/24 11:07:46;;;;;;;60.20;15.23;;;23.20;24.40;;;;;;6097772;23;20396;-85
2021/07/24 11:10:13;;;;;;;58.77;14.10;;;23.30;25.50;;;;;;6097700;23;20443;-81
2021/07/24 12:12:30;;;;;;;58.47;17.13;;;23.20;24.70;;;;;;5688248;24;20456;-84
2021/07/24 12:21:46;;;;;;;56.13;19.10;;;23.10;23.60;;;;;;5866923;24;20415;-85
2021/07/24 12:25:01;;;;;;;;;;;;;;;;;;;;;
2021/07/24 12:30:41;;;;;;;63.23;16.07;;;22.90;25.10;;;;;;5939323;23;20478;-86
2021/07/24 14:07:02;;;;;;;;;;;;;;;;;;;;;
2021/07/24 14:09:32;;;;;;;1083.10;999.90;;;20.40;99.90;;;;;;6107451;23;20792;-83
2021/07/24 14:12:00;;;;;;;1072.10;999.90;;;20.40;99.90;;;;;;6097971;23;20449;-83
2021/07/24 14:14:33;;;;;;;1074.27;999.90;;;20.40;99.90;;;;;;6106035;23;20532;-83
2021/07/24 14:17:01;;;;;;;1064.80;999.90;;;20.50;99.90;;;;;;6097914;23;20400;-82
2021/07/24 14:19:30;;;;;;;1029.77;974.93;;;20.40;99.90;;;;;;6107310;23;20999;-83
2021/07/24 14:21:58;;;;;;;1026.87;973.03;;;20.50;99.90;;;;;;6107480;23;20471;-83
2021/07/24 14:24:30;;;;;;;1010.00;956.33;;;20.50;99.90;;;;;;6097606;23;20900;-82
2021/07/24 14:27:02;;;;;;;1021.70;973.87;;;20.60;99.90;;;;;;6097944;23;20400;-82
2021/07/24 14:29:35;;;;;;;1032.37;979.37;;;20.80;97.30;;;;;;6105923;23;20917;-83
2021/07/24 14:32:11;;;;;;;;;;;;;;;;;;;;;
2021/07/24 14:34:47;;;;;;;1053.50;998.23;;;21.10;98.90;;;;;;6080382;23;20427;-83
2021/07/24 14:37:26;;;;;;;1061.97;999.90;;;21.30;97.40;;;;;;6127202;23;20787;-83
2021/07/24 14:40:15;;;;;;;1071.37;999.90;;;21.40;94.90;;;;;;6127068;23;20398;-83
2021/07/24 14:42:58;;;;;;;;;;;;;;;;;;;;;
2021/07/24 14:45:43;;;;;;;688.73;663.43;;;21.40;90.60;;;;;;6104987;23;20410;-83
2021/07/24 14:48:19;;;;;;;415.50;399.00;;;21.20;75.40;;;;;;6126470;23;20883;-83
2021/07/24 14:50:52;;;;;;;155.53;145.43;;;21.20;83.20;;;;;;6136505;23;20434;-83
2021/07/24 14:53:25;;;;;;;628.80;605.90;;;20.90;72.50;;;;;;6136602;23;20439;-83
2021/07/24 14:55:54;;;;;;;785.87;756.40;;;20.80;81.70;;;;;;6127083;23;20742;-83
2021/07/24 14:58:44;;;;;;;;;;;;;;;;;;;;;
2021/07/24 15:01:14;;;;;;;1025.50;983.20;;;20.60;88.90;;;;;;6125691;23;20410;-81
2021/07/24 15:03:42;;;;;;;1071.83;999.90;;;20.60;93.60;;;;;;6126861;23;20466;-80
2021/07/24 15:06:10;;;;;;;1135.57;999.90;;;20.50;98.00;;;;;;6126273;23;20442;-81
2021/07/24 15:08:41;;;;;;;1159.47;999.90;;;20.50;97.70;;;;;;6136274;23;20773;-81
2021/07/24 15:11:13;;;;;;;1167.53;999.90;;;20.50;97.40;;;;;;6126596;23;20552;-81
2021/07/24 15:13:50;;;;;;;1150.83;999.90;;;20.50;97.50;;;;;;6136522;23;20426;-81
2021/07/24 15:16:16;;;;;;;1184.00;999.90;;;20.40;93.60;;;;;;6126442;23;20403;-80
2021/07/24 15:18:45;;;;;;;1213.20;999.90;;;20.30;95.90;;;;;;6126859;23;20442;-80
2021/07/24 15:21:17;;;;;;;1216.30;999.90;;;20.20;99.40;;;;;;6136211;23;20438;-80
2021/07/24 15:23:49;;;;;;;1180.23;999.90;;;20.20;99.90;;;;;;6136080;23;20454;-80
2021/07/24 15:26:17;;;;;;;1102.33;999.90;;;20.20;99.90;;;;;;6126675;23;20402;-80
2021/07/24 15:28:44;;;;;;;1145.27;999.90;;;20.10;99.90;;;;;;6125762;23;20895;-80
2021/07/24 15:31:11;;;;;;;1158.97;999.90;;;20.10;99.90;;;;;;6135858;23;20525;-80
2021/07/24 15:33:44;;;;;;;1159.30;999.90;;;20.10;99.90;;;;;;6126510;23;20684;-80
2021/07/24 15:36:12;;;;;;;1158.47;999.90;;;20.00;99.90;;;;;;6136345;23;20399;-78
2021/07/24 15:38:39;;;;;;;1130.53;999.90;;;19.90;99.90;;;;;;6126691;23;20462;-80
2021/07/24 15:41:10;;;;;;;1127.03;999.90;;;19.90;99.90;;;;;;6126527;23;20402;-80
2021/07/24 15:43:37;;;;;;;1130.63;999.90;;;19.90;99.90;;;;;;6124163;23;20405;-79
2021/07/24 15:46:04;;;;;;;1159.53;999.90;;;20.00;99.90;;;;;;6123184;23;20399;-79
2021/07/24 15:48:31;;;;;;;1140.30;999.90;;;20.00;99.90;;;;;;6134032;23;20407;-79
2021/07/24 15:50:58;;;;;;;1163.33;999.90;;;19.90;99.90;;;;;;6124255;23;20438;-79
2021/07/24 15:53:25;;;;;;;1189.00;999.90;;;20.00;99.90;;;;;;6123977;23;20491;-79
2021/07/24 15:55:52;;;;;;;1169.37;999.90;;;19.90;99.90;;;;;;6134584;23;20473;-79
2021/07/24 15:58:20;;;;;;;1174.37;999.90;;;19.90;99.90;;;;;;6125034;23;20434;-79
2021/07/24 16:00:47;;;;;;;1184.83;999.90;;;20.00;99.90;;;;;;6132531;23;20959;-79
2021/07/24 16:03:13;;;;;;;1204.50;999.90;;;20.00;99.90;;;;;;6124623;23;20537;-79
2021/07/24 16:05:44;;;;;;;1228.80;999.90;;;19.90;99.90;;;;;;6124417;23;20843;-80
2021/07/24 16:08:11;;;;;;;1206.87;999.90;;;19.90;99.90;;;;;;6124184;23;20902;-80
2021/07/24 16:10:40;;;;;;;1227.33;999.90;;;20.00;99.90;;;;;;6124249;23;20446;-80
2021/07/24 16:13:07;;;;;;;1193.67;999.90;;;19.90;99.90;;;;;;6124658;23;20521;-80
2021/07/24 16:15:39;;;;;;;1242.77;999.90;;;19.80;99.90;;;;;;6123107;23;20426;-79
2021/07/24 16:18:05;;;;;;;1235.77;999.90;;;19.80;99.90;;;;;;6124599;23;20784;-80
2021/07/24 16:20:34;;;;;;;1228.23;999.90;;;19.70;99.90;;;;;;6124520;23;20406;-80
2021/07/24 16:23:01;;;;;;;1244.57;999.90;;;19.80;99.90;;;;;;6134252;23;20438;-80
2021/07/24 16:25:27;;;;;;;1240.80;999.90;;;19.70;99.90;;;;;;6124495;23;20494;-79
2021/07/24 16:27:54;;;;;;;1272.90;999.90;;;19.60;99.90;;;;;;6124533;23;20784;-79
2021/07/24 16:30:21;;;;;;;1302.37;999.90;;;19.70;99.90;;;;;;6122986;23;20403;-80
2021/07/24 16:32:50;;;;;;;1329.17;999.90;;;19.70;99.90;;;;;;6123977;23;20942;-79
2021/07/24 16:35:17;;;;;;;1348.93;999.90;;;19.70;99.90;;;;;;6133897;23;20414;-80
2021/07/24 16:37:43;;;;;;;1329.50;999.90;;;19.70;99.90;;;;;;6124553;23;20722;-79
2021/07/24 16:40:12;;;;;;;1309.50;999.90;;;19.80;99.90;;;;;;6124354;23;20403;-80
2021/07/24 16:42:39;;;;;;;1279.63;999.90;;;19.70;99.90;;;;;;6124150;23;20411;-80
2021/07/24 16:45:06;;;;;;;1289.20;999.90;;;19.80;99.90;;;;;;6132291;23;20961;-79
2021/07/24 16:47:36;;;;;;;1280.93;999.90;;;19.80;99.90;;;;;;6124643;23;20490;-79
2021/07/24 16:50:05;;;;;;;1290.33;999.90;;;19.80;99.90;;;;;;6124443;23;20399;-79
2021/07/24 16:52:33;;;;;;;1256.80;999.90;;;19.70;99.90;;;;;;6124595;23;20438;-80
2021/07/24 16:55:00;;;;;;;1260.53;999.90;;;19.80;99.90;;;;;;6124263;23;20426;-80
2021/07/24 16:57:26;;;;;;;1253.23;999.90;;;19.80;99.90;;;;;;6134481;23;20422;-81
2021/07/24 16:59:53;;;;;;;1277.63;999.90;;;19.80;99.90;;;;;;6124463;23;20403;-80
2021/07/24 17:02:21;;;;;;;1296.17;999.90;;;19.80;99.90;;;;;;6134894;23;20410;-79
2021/07/24 17:04:47;;;;;;;1286.30;999.90;;;19.70;99.90;;;;;;6125513;23;20490;-79
2021/07/24 17:07:16;;;;;;;1275.20;999.90;;;19.70;99.90;;;;;;6125675;23;20481;-79
2021/07/24 17:09:43;;;;;;;1259.80;999.90;;;19.80;99.90;;;;;;6125953;23;20435;-85
2021/07/24 17:12:09;;;;;;;1252.37;999.90;;;19.70;99.90;;;;;;6126390;23;20507;-84
2021/07/24 17:14:36;;;;;;;1250.13;999.90;;;19.70;99.90;;;;;;6126279;23;20450;-84
2021/07/24 17:17:04;;;;;;;1266.60;999.90;;;19.80;99.90;;;;;;6138038;23;20898;-83
2021/07/24 17:19:32;;;;;;;1275.17;999.90;;;19.70;99.90;;;;;;6128143;23;20493;-85
2021/07/24 17:21:59;;;;;;;1272.53;999.90;;;19.70;99.90;;;;;;6128014;23;20406;-85
2021/07/24 17:24:27;;;;;;;1282.23;999.90;;;19.80;99.90;;;;;;6127955;23;20586;-82
2021/07/24 17:26:54;;;;;;;1271.70;999.90;;;19.80;99.90;;;;;;6128025;23;20437;-86
2021/07/24 17:29:21;;;;;;;1268.80;999.90;;;19.80;99.90;;;;;;6126489;23;20410;-84
2021/07/24 17:31:49;;;;;;;1294.60;999.90;;;19.80;99.90;;;;;;6127527;23;20526;-85
2021/07/24 17:34:16;;;;;;;1293.53;999.90;;;19.80;99.90;;;;;;6128196;23;20425;-85
2021/07/24 17:37:45;;;;;;;;;;;;;;;;;;;;;
2021/07/24 17:50:58;;;;;;;;;;;;;;;;;;;;;
2021/07/24 17:53:26;;;;;;;1261.93;999.90;;;19.60;99.90;;;;;;5925677;24;20451;-78
2021/07/24 17:55:53;;;;;;;1278.50;999.90;;;19.60;99.90;;;;;;6060373;23;20459;-78
2021/07/24 17:58:19;;;;;;;1261.70;999.90;;;19.60;99.90;;;;;;6108422;23;20746;-78
2021/07/24 18:00:46;;;;;;;1245.93;999.90;;;19.70;99.90;;;;;;6126143;23;20490;-80
2021/07/24 18:03:13;;;;;;;1276.50;999.90;;;19.70;99.90;;;;;;6127251;23;20818;-78
2021/07/24 18:05:42;;;;;;;1291.93;999.90;;;19.70;99.90;;;;;;6127130;23;20989;-79
2021/07/24 18:08:09;;;;;;;1269.50;999.90;;;19.70;99.90;;;;;;6127482;23;20403;-80
2021/07/24 18:10:37;;;;;;;1258.27;999.90;;;19.70;99.90;;;;;;6127489;23;20409;-78
2021/07/24 18:13:04;;;;;;;1262.93;999.90;;;19.70;99.90;;;;;;6127043;23;20974;-79
2021/07/24 18:15:31;;;;;;;1272.70;999.90;;;19.70;99.90;;;;;;6135355;23;20440;-79
2021/07/24 18:17:58;;;;;;;1275.17;999.90;;;19.70;99.90;;;;;;6127514;23;20410;-79
2021/07/24 18:20:25;;;;;;;1313.27;999.90;;;19.70;99.90;;;;;;6127362;23;20499;-80
2021/07/24 18:22:54;;;;;;;1334.13;999.90;;;19.60;99.90;;;;;;6127013;23;20399;-79
2021/07/24 18:25:21;;;;;;;1306.50;999.90;;;19.60;99.90;;;;;;6127309;23;20402;-79
2021/07/24 18:27:48;;;;;;;1325.20;999.90;;;19.50;99.90;;;;;;6127430;23;20405;-78
2021/07/24 18:30:23;;;;;;;1306.60;999.90;;;19.50;99.90;;;;;;6125476;23;20962;-83
2021/07/24 18:32:52;;;;;;;1313.20;999.90;;;19.40;99.90;;;;;;6127016;23;20473;-83
2021/07/24 18:35:24;;;;;;;1322.33;999.90;;;19.40;99.90;;;;;;6137047;23;20461;-82
2021/07/24 18:37:55;;;;;;;1423.83;999.90;;;19.30;99.90;;;;;;6126779;23;20923;-83
2021/07/24 18:40:25;;;;;;;1364.47;999.90;;;19.30;99.90;;;;;;6136568;23;20403;-82
2021/07/24 18:42:55;;;;;;;1307.63;999.90;;;19.30;99.90;;;;;;6136525;23;20525;-82
2021/07/24 18:45:24;;;;;;;1318.53;999.90;;;19.20;99.90;;;;;;6135481;23;20414;-82
2021/07/24 18:47:51;;;;;;;1274.70;999.90;;;19.30;99.90;;;;;;6126948;23;20411;-82
2021/07/24 18:50:20;;;;;;;1293.87;999.90;;;19.20;99.90;;;;;;6136596;23;20878;-82
2021/07/24 18:52:49;;;;;;;1278.23;999.90;;;19.20;99.90;;;;;;6127003;23;20935;-83
2021/07/24 18:55:23;;;;;;;1291.30;999.90;;;19.10;99.90;;;;;;6127029;23;20403;-82
2021/07/24 18:57:50;;;;;;;1249.60;999.90;;;19.10;99.90;;;;;;6136461;23;20433;-82
2021/07/24 19:00:22;;;;;;;1316.20;999.90;;;19.20;99.90;;;;;;6125458;23;20403;-83
2021/07/24 19:03:03;;;;;;;;;;;;;;;;;;;;;
2021/07/24 19:05:40;;;;;;;1277.87;999.90;;;19.00;99.90;;;;;;6136658;23;20450;-81
2021/07/24 19:08:07;;;;;;;1278.50;999.90;;;19.00;99.90;;;;;;6136437;23;20438;-78
2021/07/24 19:10:36;;;;;;;1248.23;999.90;;;18.90;99.90;;;;;;6126996;23;20403;-77
2021/07/24 19:13:03;;;;;;;1274.20;999.90;;;18.90;99.90;;;;;;6126691;23;20438;-77
2021/07/24 19:15:30;;;;;;;1266.90;999.90;;;18.80;99.90;;;;;;6125464;23;20403;-78
2021/07/24 19:17:57;;;;;;;1238.27;999.90;;;18.80;99.90;;;;;;6127076;23;20413;-76
2021/07/24 19:20:24;;;;;;;1215.60;999.90;;;18.80;99.90;;;;;;6126907;23;20409;-77
2021/07/24 19:22:51;;;;;;;1206.63;999.90;;;18.80;99.90;;;;;;6126922;23;20431;-77
2021/07/24 19:25:18;;;;;;;1199.53;999.90;;;18.70;99.90;;;;;;6126573;23;20491;-77
2021/07/24 19:27:46;;;;;;;1187.60;999.90;;;18.60;99.90;;;;;;6126683;23;20442;-77
2021/07/24 19:30:18;;;;;;;1182.10;999.90;;;18.50;99.90;;;;;;6125249;23;20406;-77
2021/07/24 19:32:46;;;;;;;1161.90;999.90;;;18.40;99.90;;;;;;6126557;23;20446;-79
2021/07/24 19:35:13;;;;;;;1134.80;999.90;;;18.30;99.90;;;;;;6126371;23;20410;-77
2021/07/24 19:37:43;;;;;;;1117.07;999.90;;;18.20;99.90;;;;;;6126825;23;20485;-89
2021/07/24 19:40:19;;;;;;;1094.77;999.90;;;18.10;99.90;;;;;;6126185;23;20449;-86
2021/07/24 19:42:47;;;;;;;1078.87;999.90;;;18.10;99.90;;;;;;6136489;23;20410;-87
2021/07/24 19:45:16;;;;;;;1058.20;998.33;;;18.10;99.90;;;;;;6125177;23;20437;-86